sensor_id;sensor_type;location;lat;lon;timestamp;pressure;altitude;pressure_sealevel;temperature;humidity
75942;BME280;64622;46.220;19.878;2023-10-08T00:00:05;100678.59;;;16.63;90.37
75942;BME280;64622;46.220;19.878;2023-10-08T00:02:52;100674.69;;;16.65;91.45
75942;BME280;64622;46.220;19.878;2023-10-08T00:05:19;100664.44;;;16.61;90.71
75942;BME280;64622;46.220;19.878;2023-10-08T00:07:48;100669.09;;;16.67;91.31
75942;BME280;64622;46.220;19.878;2023-10-08T00:10:14;100673.19;;;16.77;91.29
75942;BME280;64622;46.220;19.878;2023-10-08T00:12:41;100661.69;;;16.90;91.22
75942;BME280;64622;46.220;19.878;2023-10-08T00:15:08;100650.53;;;16.78;91.41
75942;BME280;64622;46.220;19.878;2023-10-08T00:17:37;100643.44;;;16.77;91.58
75942;BME280;64622;46.220;19.878;2023-10-08T00:20:03;100648.09;;;16.83;92.08
75942;BME280;64622;46.220;19.878;2023-10-08T00:22:30;100648.47;;;16.80;92.68
75942;BME280;64622;46.220;19.878;2023-10-08T00:25:02;100641.97;;;16.75;92.58
75942;BME280;64622;46.220;19.878;2023-10-08T00:27:37;100652.28;;;16.71;92.49
75942;BME280;64622;46.220;19.878;2023-10-08T00:30:06;100647.44;;;16.81;92.32
75942;BME280;64622;46.220;19.878;2023-10-08T00:32:44;100648.00;;;16.77;93.04
75942;BME280;64622;46.220;19.878;2023-10-08T00:35:11;100642.16;;;16.73;93.43
75942;BME280;64622;46.220;19.878;2023-10-08T00:37:39;100631.53;;;16.72;92.98
75942;BME280;64622;46.220;19.878;2023-10-08T00:40:09;100651.06;;;16.74;93.48
75942;BME280;64622;46.220;19.878;2023-10-08T00:42:39;100655.22;;;16.70;93.04
75942;BME280;64622;46.220;19.878;2023-10-08T00:45:12;100642.81;;;16.61;93.35
75942;BME280;64622;46.220;19.878;2023-10-08T00:47:42;100634.91;;;16.59;93.48
75942;BME280;64622;46.220;19.878;2023-10-08T00:50:10;100632.78;;;16.55;93.31
75942;BME280;64622;46.220;19.878;2023-10-08T00:52:49;100634.91;;;16.59;94.02
75942;BME280;64622;46.220;19.878;2023-10-08T00:55:28;100623.56;;;16.49;93.94
75942;BME280;64622;46.220;19.878;2023-10-08T00:57:58;100632.28;;;16.51;94.21
75942;BME280;64622;46.220;19.878;2023-10-08T01:00:34;100626.25;;;16.49;94.84
75942;BME280;64622;46.220;19.878;2023-10-08T01:03:07;100632.50;;;16.50;94.90
75942;BME280;64622;46.220;19.878;2023-10-08T01:05:41;100609.69;;;16.52;94.74
75942;BME280;64622;46.220;19.878;2023-10-08T01:08:14;100609.59;;;16.46;94.78
75942;BME280;64622;46.220;19.878;2023-10-08T01:10:48;100611.47;;;16.66;94.01
75942;BME280;64622;46.220;19.878;2023-10-08T01:13:23;100604.81;;;16.62;94.29
75942;BME280;64622;46.220;19.878;2023-10-08T01:15:52;100601.53;;;16.67;94.28
75942;BME280;64622;46.220;19.878;2023-10-08T01:18:21;100615.47;;;16.85;93.34
75942;BME280;64622;46.220;19.878;2023-10-08T01:20:58;100610.97;;;16.92;92.45
75942;BME280;64622;46.220;19.878;2023-10-08T01:23:31;100600.31;;;16.90;91.95
75942;BME280;64622;46.220;19.878;2023-10-08T01:25:58;100611.28;;;17.03;91.19
75942;BME280;64622;46.220;19.878;2023-10-08T01:28:37;100611.47;;;17.02;90.95
75942;BME280;64622;46.220;19.878;2023-10-08T01:31:05;100616.37;;;16.92;91.36
75942;BME280;64622;46.220;19.878;2023-10-08T01:33:33;100614.25;;;16.87;91.40
75942;BME280;64622;46.220;19.878;2023-10-08T01:36:16;100596.28;;;16.80;91.72
75942;BME280;64622;46.220;19.878;2023-10-08T01:38:43;100595.63;;;16.78;91.29
75942;BME280;64622;46.220;19.878;2023-10-08T01:41:09;100589.56;;;16.76;91.63
75942;BME280;64622;46.220;19.878;2023-10-08T01:43:46;100590.75;;;16.52;93.02
75942;BME280;64622;46.220;19.878;2023-10-08T01:46:12;100585.13;;;16.68;91.90
75942;BME280;64622;46.220;19.878;2023-10-08T01:48:42;100591.75;;;16.66;92.01
75942;BME280;64622;46.220;19.878;2023-10-08T01:51:11;100582.87;;;16.72;91.57
75942;BME280;64622;46.220;19.878;2023-10-08T01:53:38;100574.94;;;16.70;91.78
75942;BME280;64622;46.220;19.878;2023-10-08T01:56:05;100578.56;;;16.77;91.82
75942;BME280;64622;46.220;19.878;2023-10-08T01:58:32;100582.28;;;16.76;91.96
75942;BME280;64622;46.220;19.878;2023-10-08T02:01:01;100571.41;;;16.70;92.08
75942;BME280;64622;46.220;19.878;2023-10-08T02:03:32;100581.38;;;16.69;92.57
75942;BME280;64622;46.220;19.878;2023-10-08T02:05:58;100577.97;;;16.61;92.69
75942;BME280;64622;46.220;19.878;2023-10-08T02:08:25;100586.59;;;16.71;92.27
75942;BME280;64622;46.220;19.878;2023-10-08T02:10:58;100579.78;;;16.75;92.14
75942;BME280;64622;46.220;19.878;2023-10-08T02:13:25;100589.25;;;16.85;91.96
75942;BME280;64622;46.220;19.878;2023-10-08T02:15:52;100576.31;;;16.81;91.88
75942;BME280;64622;46.220;19.878;2023-10-08T02:18:20;100585.50;;;16.86;91.75
75942;BME280;64622;46.220;19.878;2023-10-08T02:20:47;100577.41;;;16.86;91.71
75942;BME280;64622;46.220;19.878;2023-10-08T02:23:14;100568.91;;;16.89;91.52
75942;BME280;64622;46.220;19.878;2023-10-08T02:25:41;100551.47;;;16.92;91.72
75942;BME280;64622;46.220;19.878;2023-10-08T02:28:08;100565.50;;;17.02;91.72
75942;BME280;64622;46.220;19.878;2023-10-08T02:30:35;100545.47;;;16.96;91.71
75942;BME280;64622;46.220;19.878;2023-10-08T02:33:05;100544.47;;;16.97;91.56
75942;BME280;64622;46.220;19.878;2023-10-08T02:35:41;100536.53;;;16.96;91.36
75942;BME280;64622;46.220;19.878;2023-10-08T02:38:12;100545.69;;;16.95;91.47
75942;BME280;64622;46.220;19.878;2023-10-08T02:40:39;100551.47;;;16.92;91.81
75942;BME280;64622;46.220;19.878;2023-10-08T02:43:15;100541.63;;;16.84;91.78
75942;BME280;64622;46.220;19.878;2023-10-08T02:45:43;100550.25;;;16.94;91.50
75942;BME280;64622;46.220;19.878;2023-10-08T02:48:13;100552.09;;;16.94;91.68
75942;BME280;64622;46.220;19.878;2023-10-08T02:50:42;100554.19;;;16.92;91.73
75942;BME280;64622;46.220;19.878;2023-10-08T02:53:11;100544.12;;;16.86;91.84
75942;BME280;64622;46.220;19.878;2023-10-08T02:55:39;100547.22;;;16.83;92.14
75942;BME280;64622;46.220;19.878;2023-10-08T02:58:10;100549.13;;;16.89;91.88
75942;BME280;64622;46.220;19.878;2023-10-08T03:00:46;100539.34;;;16.88;91.63
75942;BME280;64622;46.220;19.878;2023-10-08T03:03:16;100535.44;;;16.90;91.09
75942;BME280;64622;46.220;19.878;2023-10-08T03:05:49;100536.09;;;16.92;91.11
75942;BME280;64622;46.220;19.878;2023-10-08T03:08:19;100541.03;;;16.89;91.69
75942;BME280;64622;46.220;19.878;2023-10-08T03:10:50;100541.63;;;16.84;91.76
75942;BME280;64622;46.220;19.878;2023-10-08T03:13:38;100546.41;;;16.82;91.62
75942;BME280;64622;46.220;19.878;2023-10-08T03:16:05;100539.09;;;16.83;91.42
75942;BME280;64622;46.220;19.878;2023-10-08T03:18:34;100538.47;;;16.81;91.77
75942;BME280;64622;46.220;19.878;2023-10-08T03:21:04;100527.84;;;16.79;91.94
75942;BME280;64622;46.220;19.878;2023-10-08T03:23:31;100523.47;;;16.78;91.61
75942;BME280;64622;46.220;19.878;2023-10-08T03:26:02;100524.78;;;16.82;91.00
75942;BME280;64622;46.220;19.878;2023-10-08T03:28:52;100512.41;;;16.73;91.14
75942;BME280;64622;46.220;19.878;2023-10-08T03:31:24;100512.31;;;16.88;89.97
75942;BME280;64622;46.220;19.878;2023-10-08T03:34:11;100509.19;;;16.84;90.98
75942;BME280;64622;46.220;19.878;2023-10-08T03:36:41;100506.28;;;16.86;90.63
75942;BME280;64622;46.220;19.878;2023-10-08T03:39:11;100518.00;;;16.93;89.78
75942;BME280;64622;46.220;19.878;2023-10-08T03:41:44;100509.09;;;16.99;89.12
75942;BME280;64622;46.220;19.878;2023-10-08T03:44:24;100518.87;;;17.21;88.50
75942;BME280;64622;46.220;19.878;2023-10-08T03:46:51;100518.28;;;17.25;88.12
75942;BME280;64622;46.220;19.878;2023-10-08T03:49:18;100518.75;;;17.35;87.29
75942;BME280;64622;46.220;19.878;2023-10-08T03:51:49;100501.91;;;17.33;86.84
75942;BME280;64622;46.220;19.878;2023-10-08T03:54:19;100516.19;;;17.48;85.71
75942;BME280;64622;46.220;19.878;2023-10-08T03:56:56;100517.44;;;17.46;85.80
75942;BME280;64622;46.220;19.878;2023-10-08T03:59:23;100514.97;;;17.51;84.63
75942;BME280;64622;46.220;19.878;2023-10-08T04:01:58;100531.50;;;17.62;84.25
75942;BME280;64622;46.220;19.878;2023-10-08T04:04:27;100532.91;;;17.58;84.65
75942;BME280;64622;46.220;19.878;2023-10-08T04:07:19;100529.56;;;17.56;85.33
75942;BME280;64622;46.220;19.878;2023-10-08T04:10:06;100526.16;;;17.48;85.60
75942;BME280;64622;46.220;19.878;2023-10-08T04:12:38;100513.94;;;17.52;85.17
75942;BME280;64622;46.220;19.878;2023-10-08T04:15:18;100525.00;;;17.57;85.26
75942;BME280;64622;46.220;19.878;2023-10-08T04:17:45;100515.78;;;17.51;85.71
75942;BME280;64622;46.220;19.878;2023-10-08T04:20:17;100530.88;;;17.67;84.23
75942;BME280;64622;46.220;19.878;2023-10-08T04:23:06;100531.94;;;17.66;84.38
75942;BME280;64622;46.220;19.878;2023-10-08T04:25:40;100528.78;;;17.62;84.43
75942;BME280;64622;46.220;19.878;2023-10-08T04:28:10;100521.28;;;17.64;84.38
75942;BME280;64622;46.220;19.878;2023-10-08T04:30:45;100529.22;;;17.66;84.82
75942;BME280;64622;46.220;19.878;2023-10-08T04:33:14;100518.97;;;17.61;85.44
75942;BME280;64622;46.220;19.878;2023-10-08T04:35:42;100521.69;;;17.61;85.34
75942;BME280;64622;46.220;19.878;2023-10-08T04:38:15;100530.28;;;17.65;85.67
75942;BME280;64622;46.220;19.878;2023-10-08T04:40:45;100531.09;;;17.65;85.42
75942;BME280;64622;46.220;19.878;2023-10-08T04:43:15;100539.81;;;17.61;85.77
75942;BME280;64622;46.220;19.878;2023-10-08T04:45:48;100525.88;;;17.64;85.31
75942;BME280;64622;46.220;19.878;2023-10-08T04:48:16;100520.66;;;17.62;85.42
75942;BME280;64622;46.220;19.878;2023-10-08T04:50:47;100512.31;;;17.57;85.69
75942;BME280;64622;46.220;19.878;2023-10-08T04:53:42;100510.03;;;17.61;85.59
75942;BME280;64622;46.220;19.878;2023-10-08T04:56:12;100491.94;;;17.68;84.71
75942;BME280;64622;46.220;19.878;2023-10-08T04:58:46;100496.53;;;17.67;84.82
75942;BME280;64622;46.220;19.878;2023-10-08T05:01:17;100494.84;;;17.66;85.00
75942;BME280;64622;46.220;19.878;2023-10-08T05:03:48;100480.75;;;17.71;84.18
75942;BME280;64622;46.220;19.878;2023-10-08T05:06:41;100493.91;;;17.80;84.09
75942;BME280;64622;46.220;19.878;2023-10-08T05:09:13;100483.53;;;17.90;82.65
75942;BME280;64622;46.220;19.878;2023-10-08T05:11:51;100472.53;;;17.98;81.42
75942;BME280;64622;46.220;19.878;2023-10-08T05:14:22;100465.09;;;18.13;79.94
75942;BME280;64622;46.220;19.878;2023-10-08T05:17:16;100456.12;;;18.13;80.74
75942;BME280;64622;46.220;19.878;2023-10-08T05:19:42;100468.03;;;18.18;79.88
75942;BME280;64622;46.220;19.878;2023-10-08T05:22:17;100453.03;;;18.29;78.10
75942;BME280;64622;46.220;19.878;2023-10-08T05:24:46;100466.59;;;18.29;78.79
75942;BME280;64622;46.220;19.878;2023-10-08T05:27:42;100471.88;;;18.37;77.70
75942;BME280;64622;46.220;19.878;2023-10-08T05:30:15;100482.91;;;18.35;78.18
75942;BME280;64622;46.220;19.878;2023-10-08T05:32:44;100488.53;;;18.34;78.60
75942;BME280;64622;46.220;19.878;2023-10-08T05:35:30;100482.03;;;18.28;79.28
75942;BME280;64622;46.220;19.878;2023-10-08T05:38:10;100486.03;;;18.39;78.58
75942;BME280;64622;46.220;19.878;2023-10-08T05:40:43;100476.66;;;18.41;78.34
75942;BME280;64622;46.220;19.878;2023-10-08T05:46:10;100471.59;;;18.32;78.05
75942;BME280;64622;46.220;19.878;2023-10-08T05:48:59;100474.91;;;18.27;78.79
75942;BME280;64622;46.220;19.878;2023-10-08T05:51:42;100477.44;;;18.29;79.09
75942;BME280;64622;46.220;19.878;2023-10-08T05:54:22;100477.47;;;18.35;79.30
75942;BME280;64622;46.220;19.878;2023-10-08T05:57:00;100466.91;;;18.60;77.74
75942;BME280;64622;46.220;19.878;2023-10-08T05:59:33;100475.91;;;18.93;75.12
75942;BME280;64622;46.220;19.878;2023-10-08T06:02:20;100468.41;;;19.21;73.39
75942;BME280;64622;46.220;19.878;2023-10-08T06:05:13;100470.47;;;19.45;69.86
75942;BME280;64622;46.220;19.878;2023-10-08T06:10:21;100483.06;;;20.03;66.76
75942;BME280;64622;46.220;19.878;2023-10-08T06:13:13;100474.31;;;20.01;67.03
75942;BME280;64622;46.220;19.878;2023-10-08T06:15:46;100469.75;;;19.88;67.15
75942;BME280;64622;46.220;19.878;2023-10-08T06:18:33;100471.59;;;20.01;66.92
75942;BME280;64622;46.220;19.878;2023-10-08T06:21:04;100478.31;;;19.85;68.06
75942;BME280;64622;46.220;19.878;2023-10-08T06:23:39;100469.41;;;19.59;70.00
75942;BME280;64622;46.220;19.878;2023-10-08T06:26:08;100470.47;;;19.58;70.02
75942;BME280;64622;46.220;19.878;2023-10-08T06:28:38;100471.50;;;19.63;69.65
75942;BME280;64622;46.220;19.878;2023-10-08T06:31:05;100482.97;;;19.59;69.54
75942;BME280;64622;46.220;19.878;2023-10-08T06:33:44;100476.53;;;19.53;70.27
75942;BME280;64622;46.220;19.878;2023-10-08T06:36:10;100479.75;;;19.94;66.86
75942;BME280;64622;46.220;19.878;2023-10-08T06:38:38;100481.97;;;20.23;67.63
75942;BME280;64622;46.220;19.878;2023-10-08T06:41:08;100493.38;;;21.07;62.18
75942;BME280;64622;46.220;19.878;2023-10-08T06:43:41;100487.53;;;21.28;60.83
75942;BME280;64622;46.220;19.878;2023-10-08T06:46:16;100490.00;;;21.54;58.92
75942;BME280;64622;46.220;19.878;2023-10-08T06:48:45;100494.75;;;21.16;58.10
75942;BME280;64622;46.220;19.878;2023-10-08T06:51:13;100488.78;;;21.32;57.12
75942;BME280;64622;46.220;19.878;2023-10-08T06:53:45;100478.66;;;21.14;56.92
75942;BME280;64622;46.220;19.878;2023-10-08T06:56:12;100483.88;;;21.40;56.34
75942;BME280;64622;46.220;19.878;2023-10-08T06:58:40;100480.59;;;21.32;56.68
75942;BME280;64622;46.220;19.878;2023-10-08T07:01:11;100475.69;;;21.40;56.85
75942;BME280;64622;46.220;19.878;2023-10-08T07:03:40;100486.38;;;21.42;57.13
75942;BME280;64622;46.220;19.878;2023-10-08T07:06:06;100472.25;;;21.27;56.63
75942;BME280;64622;46.220;19.878;2023-10-08T07:09:05;100474.56;;;21.23;55.99
75942;BME280;64622;46.220;19.878;2023-10-08T07:11:34;100488.47;;;21.40;56.65
75942;BME280;64622;46.220;19.878;2023-10-08T07:14:01;100499.78;;;21.61;55.18
75942;BME280;64622;46.220;19.878;2023-10-08T07:16:28;100495.03;;;21.57;54.52
75942;BME280;64622;46.220;19.878;2023-10-08T07:18:54;100499.59;;;21.81;53.90
75942;BME280;64622;46.220;19.878;2023-10-08T07:21:27;100505.13;;;22.10;53.58
75942;BME280;64622;46.220;19.878;2023-10-08T07:24:15;100504.87;;;22.30;52.45
75942;BME280;64622;46.220;19.878;2023-10-08T07:26:43;100505.78;;;21.70;55.04
75942;BME280;64622;46.220;19.878;2023-10-08T07:29:14;100504.28;;;22.10;53.21
75942;BME280;64622;46.220;19.878;2023-10-08T07:31:44;100511.69;;;22.57;51.40
75942;BME280;64622;46.220;19.878;2023-10-08T07:34:20;100499.59;;;22.94;50.61
75942;BME280;64622;46.220;19.878;2023-10-08T07:36:50;100502.28;;;22.35;51.96
75942;BME280;64622;46.220;19.878;2023-10-08T07:39:18;100492.38;;;22.70;50.58
75942;BME280;64622;46.220;19.878;2023-10-08T07:42:02;100500.56;;;22.99;49.93
75942;BME280;64622;46.220;19.878;2023-10-08T07:44:31;100501.75;;;23.03;49.57
75942;BME280;64622;46.220;19.878;2023-10-08T07:46:58;100502.03;;;23.25;48.67
75942;BME280;64622;46.220;19.878;2023-10-08T07:49:25;100511.44;;;23.75;47.46
75942;BME280;64622;46.220;19.878;2023-10-08T07:51:52;100518.44;;;23.82;47.16
75942;BME280;64622;46.220;19.878;2023-10-08T07:54:22;100507.53;;;24.45;46.33
75942;BME280;64622;46.220;19.878;2023-10-08T07:56:55;100512.97;;;24.56;46.27
75942;BME280;64622;46.220;19.878;2023-10-08T07:59:45;100511.44;;;25.05;44.01
75942;BME280;64622;46.220;19.878;2023-10-08T08:02:22;100501.66;;;24.53;44.25
75942;BME280;64622;46.220;19.878;2023-10-08T08:04:53;100502.84;;;24.17;44.97
75942;BME280;64622;46.220;19.878;2023-10-08T08:07:20;100504.31;;;23.28;46.10
75942;BME280;64622;46.220;19.878;2023-10-08T08:09:50;100500.88;;;24.01;45.16
75942;BME280;64622;46.220;19.878;2023-10-08T08:12:27;100495.69;;;24.28;44.33
75942;BME280;64622;46.220;19.878;2023-10-08T08:14:59;100501.72;;;25.14;42.87
75942;BME280;64622;46.220;19.878;2023-10-08T08:17:25;100513.22;;;25.27;42.57
75942;BME280;64622;46.220;19.878;2023-10-08T08:19:53;100508.03;;;24.98;42.74
75942;BME280;64622;46.220;19.878;2023-10-08T08:22:20;100499.53;;;24.83;43.46
75942;BME280;64622;46.220;19.878;2023-10-08T08:24:54;100499.62;;;25.04;43.54
75942;BME280;64622;46.220;19.878;2023-10-08T08:27:53;100486.09;;;25.14;43.33
75942;BME280;64622;46.220;19.878;2023-10-08T08:30:20;100478.25;;;24.73;44.34
75942;BME280;64622;46.220;19.878;2023-10-08T08:32:52;100486.16;;;24.70;44.46
75942;BME280;64622;46.220;19.878;2023-10-08T08:35:20;100483.28;;;24.37;44.15
75942;BME280;64622;46.220;19.878;2023-10-08T08:37:47;100479.47;;;24.38;44.60
75942;BME280;64622;46.220;19.878;2023-10-08T08:40:18;100482.38;;;24.59;43.42
75942;BME280;64622;46.220;19.878;2023-10-08T08:42:46;100478.63;;;24.37;43.46
75942;BME280;64622;46.220;19.878;2023-10-08T08:45:18;100489.41;;;24.16;43.95
75942;BME280;64622;46.220;19.878;2023-10-08T08:47:47;100490.16;;;24.11;44.26
75942;BME280;64622;46.220;19.878;2023-10-08T08:50:14;100491.37;;;23.92;43.44
75942;BME280;64622;46.220;19.878;2023-10-08T08:52:41;100489.56;;;23.86;44.09
75942;BME280;64622;46.220;19.878;2023-10-08T08:55:08;100495.63;;;23.77;44.03
75942;BME280;64622;46.220;19.878;2023-10-08T08:57:48;100452.97;;;23.64;44.50
75942;BME280;64622;46.220;19.878;2023-10-08T09:00:17;100501.34;;;23.75;44.69
75942;BME280;64622;46.220;19.878;2023-10-08T09:02:45;100493.84;;;23.82;44.70
75942;BME280;64622;46.220;19.878;2023-10-08T09:05:13;100497.63;;;24.04;44.88
75942;BME280;64622;46.220;19.878;2023-10-08T09:08:11;100503.91;;;24.28;44.43
75942;BME280;64622;46.220;19.878;2023-10-08T09:10:38;100487.94;;;24.64;43.57
75942;BME280;64622;46.220;19.878;2023-10-08T09:13:20;100494.06;;;24.99;42.80
75942;BME280;64622;46.220;19.878;2023-10-08T09:15:50;100506.19;;;25.03;42.69
75942;BME280;64622;46.220;19.878;2023-10-08T09:18:16;100492.56;;;24.75;43.10
75942;BME280;64622;46.220;19.878;2023-10-08T09:20:44;100489.81;;;24.75;43.51
75942;BME280;64622;46.220;19.878;2023-10-08T09:23:15;100478.44;;;24.83;43.37
75942;BME280;64622;46.220;19.878;2023-10-08T09:25:45;100472.69;;;24.40;43.98
75942;BME280;64622;46.220;19.878;2023-10-08T09:28:16;100492.28;;;24.77;43.74
75942;BME280;64622;46.220;19.878;2023-10-08T09:30:44;100485.19;;;25.58;41.75
75942;BME280;64622;46.220;19.878;2023-10-08T09:33:14;100494.81;;;25.94;41.02
75942;BME280;64622;46.220;19.878;2023-10-08T09:35:45;100504.97;;;26.36;39.70
75942;BME280;64622;46.220;19.878;2023-10-08T09:38:12;100484.00;;;26.52;39.56
75942;BME280;64622;46.220;19.878;2023-10-08T09:40:40;100484.59;;;27.38;38.24
75942;BME280;64622;46.220;19.878;2023-10-08T09:43:13;100486.62;;;26.63;38.96
75942;BME280;64622;46.220;19.878;2023-10-08T09:45:54;100478.63;;;26.40;39.62
75942;BME280;64622;46.220;19.878;2023-10-08T09:48:25;100472.03;;;25.77;40.29
75942;BME280;64622;46.220;19.878;2023-10-08T09:50:55;100469.34;;;25.60;40.38
75942;BME280;64622;46.220;19.878;2023-10-08T09:53:35;100499.09;;;26.06;39.62
75942;BME280;64622;46.220;19.878;2023-10-08T09:56:13;100483.66;;;26.96;38.43
75942;BME280;64622;46.220;19.878;2023-10-08T09:58:42;100507.00;;;26.67;38.93
75942;BME280;64622;46.220;19.878;2023-10-08T10:01:10;100498.22;;;27.60;37.21
75942;BME280;64622;46.220;19.878;2023-10-08T10:03:37;100507.47;;;27.80;36.85
75942;BME280;64622;46.220;19.878;2023-10-08T10:06:12;100502.41;;;26.51;38.12
75942;BME280;64622;46.220;19.878;2023-10-08T10:08:39;100519.25;;;26.17;39.20
75942;BME280;64622;46.220;19.878;2023-10-08T10:11:06;100526.03;;;26.31;38.52
75942;BME280;64622;46.220;19.878;2023-10-08T10:13:50;100509.47;;;26.47;38.14
75942;BME280;64622;46.220;19.878;2023-10-08T10:16:21;100521.81;;;26.23;38.98
75942;BME280;64622;46.220;19.878;2023-10-08T10:18:55;100519.97;;;25.91;39.11
75942;BME280;64622;46.220;19.878;2023-10-08T10:21:31;100513.09;;;26.53;38.56
75942;BME280;64622;46.220;19.878;2023-10-08T10:23:59;100527.69;;;26.75;38.46
75942;BME280;64622;46.220;19.878;2023-10-08T10:26:34;100517.31;;;26.82;38.25
75942;BME280;64622;46.220;19.878;2023-10-08T10:31:47;100541.00;;;26.23;40.01
75942;BME280;64622;46.220;19.878;2023-10-08T10:34:20;100547.84;;;26.21;39.94
75942;BME280;64622;46.220;19.878;2023-10-08T10:36:50;100530.16;;;26.12;39.95
75942;BME280;64622;46.220;19.878;2023-10-08T10:39:22;100546.22;;;27.16;38.54
75942;BME280;64622;46.220;19.878;2023-10-08T10:42:01;100545.75;;;27.19;38.52
75942;BME280;64622;46.220;19.878;2023-10-08T10:44:28;100545.28;;;27.63;37.41
75942;BME280;64622;46.220;19.878;2023-10-08T10:46:59;100537.44;;;25.52;41.14
75942;BME280;64622;46.220;19.878;2023-10-08T10:49:46;100549.81;;;25.54;41.52
75942;BME280;64622;46.220;19.878;2023-10-08T10:52:21;100543.97;;;25.01;42.78
75942;BME280;64622;46.220;19.878;2023-10-08T10:55:12;100544.25;;;24.88;43.21
75942;BME280;64622;46.220;19.878;2023-10-08T10:57:44;100546.47;;;25.03;43.68
75942;BME280;64622;46.220;19.878;2023-10-08T11:00:13;100547.94;;;24.66;44.23
75942;BME280;64622;46.220;19.878;2023-10-08T11:02:59;100540.72;;;24.37;44.89
75942;BME280;64622;46.220;19.878;2023-10-08T11:05:49;100549.34;;;24.57;45.01
75942;BME280;64622;46.220;19.878;2023-10-08T11:08:18;100551.75;;;25.09;43.52
75942;BME280;64622;46.220;19.878;2023-10-08T11:10:47;100557.03;;;25.77;42.50
75942;BME280;64622;46.220;19.878;2023-10-08T11:13:19;100558.31;;;26.45;41.20
75942;BME280;64622;46.220;19.878;2023-10-08T11:15:50;100553.97;;;26.28;41.14
75942;BME280;64622;46.220;19.878;2023-10-08T11:18:19;100537.97;;;26.20;41.51
75942;BME280;64622;46.220;19.878;2023-10-08T11:20:49;100550.28;;;26.39;41.33
75942;BME280;64622;46.220;19.878;2023-10-08T11:23:34;100542.34;;;26.59;40.99
75942;BME280;64622;46.220;19.878;2023-10-08T11:26:04;100553.91;;;26.23;41.04
75942;BME280;64622;46.220;19.878;2023-10-08T11:28:36;100559.44;;;26.06;41.67
75942;BME280;64622;46.220;19.878;2023-10-08T11:31:11;100535.97;;;25.94;41.49
75942;BME280;64622;46.220;19.878;2023-10-08T11:33:39;100548.81;;;25.77;42.00
75942;BME280;64622;46.220;19.878;2023-10-08T11:36:08;100545.31;;;25.98;41.56
75942;BME280;64622;46.220;19.878;2023-10-08T11:38:52;100549.25;;;25.69;41.80
75942;BME280;64622;46.220;19.878;2023-10-08T11:41:20;100561.34;;;25.89;42.06
75942;BME280;64622;46.220;19.878;2023-10-08T11:43:50;100558.31;;;25.53;42.65
75942;BME280;64622;46.220;19.878;2023-10-08T11:46:21;100556.22;;;25.93;42.02
75942;BME280;64622;46.220;19.878;2023-10-08T11:48:48;100562.66;;;26.20;41.27
75942;BME280;64622;46.220;19.878;2023-10-08T11:51:14;100575.00;;;26.39;41.22
75942;BME280;64622;46.220;19.878;2023-10-08T11:53:44;100564.69;;;25.75;42.22
75942;BME280;64622;46.220;19.878;2023-10-08T11:56:14;100576.84;;;25.79;42.31
75942;BME280;64622;46.220;19.878;2023-10-08T11:58:41;100587.62;;;25.36;43.06
75942;BME280;64622;46.220;19.878;2023-10-08T12:01:11;100574.59;;;25.26;43.47
75942;BME280;64622;46.220;19.878;2023-10-08T12:03:42;100568.63;;;25.01;44.28
75942;BME280;64622;46.220;19.878;2023-10-08T12:06:12;100565.03;;;25.01;44.36
75942;BME280;64622;46.220;19.878;2023-10-08T12:08:46;100564.69;;;24.69;44.79
75942;BME280;64622;46.220;19.878;2023-10-08T12:11:13;100576.37;;;24.65;45.10
75942;BME280;64622;46.220;19.878;2023-10-08T12:13:41;100589.97;;;24.60;45.26
75942;BME280;64622;46.220;19.878;2023-10-08T12:16:14;100588.09;;;24.26;45.86
75942;BME280;64622;46.220;19.878;2023-10-08T12:18:50;100592.03;;;24.30;46.55
75942;BME280;64622;46.220;19.878;2023-10-08T12:21:20;100598.69;;;24.22;46.56
75942;BME280;64622;46.220;19.878;2023-10-08T12:23:47;100574.59;;;24.08;46.68
75942;BME280;64622;46.220;19.878;2023-10-08T12:26:16;100596.69;;;24.18;46.75
75942;BME280;64622;46.220;19.878;2023-10-08T12:28:46;100582.53;;;24.09;47.04
75942;BME280;64622;46.220;19.878;2023-10-08T12:31:15;100581.94;;;24.81;45.58
75942;BME280;64622;46.220;19.878;2023-10-08T12:33:42;100576.34;;;24.76;45.36
75942;BME280;64622;46.220;19.878;2023-10-08T12:36:12;100602.06;;;25.31;44.72
75942;BME280;64622;46.220;19.878;2023-10-08T12:38:40;100602.81;;;25.43;44.15
75942;BME280;64622;46.220;19.878;2023-10-08T12:41:08;100595.94;;;25.41;44.41
75942;BME280;64622;46.220;19.878;2023-10-08T12:43:43;100598.03;;;25.50;44.26
75942;BME280;64622;46.220;19.878;2023-10-08T12:46:14;100590.03;;;25.32;44.07
75942;BME280;64622;46.220;19.878;2023-10-08T12:48:52;100606.00;;;25.68;43.62
75942;BME280;64622;46.220;19.878;2023-10-08T12:51:21;100617.31;;;25.55;44.12
75942;BME280;64622;46.220;19.878;2023-10-08T12:53:53;100615.47;;;24.88;45.24
75942;BME280;64622;46.220;19.878;2023-10-08T12:56:30;100617.22;;;24.43;46.76
75942;BME280;64622;46.220;19.878;2023-10-08T12:59:11;100601.66;;;24.44;46.77
75942;BME280;64622;46.220;19.878;2023-10-08T13:01:47;100608.06;;;24.61;46.69
75942;BME280;64622;46.220;19.878;2023-10-08T13:04:20;100613.41;;;24.67;47.11
75942;BME280;64622;46.220;19.878;2023-10-08T13:07:01;100618.41;;;24.47;47.79
75942;BME280;64622;46.220;19.878;2023-10-08T13:09:29;100623.66;;;24.60;47.97
75942;BME280;64622;46.220;19.878;2023-10-08T13:12:03;100610.81;;;24.38;48.38
75942;BME280;64622;46.220;19.878;2023-10-08T13:14:30;100617.09;;;23.81;50.17